Time;durP1;ratioP1;P1;durP2;ratioP2;P2;SDS_P1;SDS_P2;PMS_P1;PMS_P2;Temp;Humidity;BMP_temperature;BMP_pressure;BME280_temperature;BME280_humidity;BME280_pressure;Samples;Min_cycle;Max_cycle;Signal;HPM_P1;HPM_P2
2021/03/21 00:01:38;;;;;;;10.10;9.20;;;;;;;;;;5090279;28;20720;-70
2021/03/21 00:04:23;;;;;;;10.63;9.63;;;;;;;;;;5090838;28;20203;-70
2021/03/21 00:07:07;;;;;;;9.93;9.10;;;;;;;;;;5088897;28;20240;-70
2021/03/21 00:09:52;;;;;;;9.97;8.93;;;;;;;;;;5094136;28;20205;-70
2021/03/21 00:12:36;;;;;;;10.67;9.67;;;;;;;;;;5093689;28;20231;-70
2021/03/21 00:15:22;;;;;;;12.33;11.33;;;;;;;;;;5093949;28;20221;-70
2021/03/21 00:18:06;;;;;;;12.53;11.53;;;;;;;;;;5092808;28;20267;-70
2021/03/21 00:20:51;;;;;;;10.70;9.60;;;;;;;;;;5073519;28;20700;-70
2021/03/21 00:23:35;;;;;;;9.77;8.97;;;;;;;;;;5092279;28;20226;-70
2021/03/21 00:26:20;;;;;;;9.13;8.43;;;;;;;;;;5092982;28;20709;-70
2021/03/21 00:29:04;;;;;;;8.67;7.63;;;;;;;;;;5093469;28;20680;-70
2021/03/21 00:31:49;;;;;;;6.17;5.50;;;;;;;;;;5092886;28;20727;-70
2021/03/21 00:34:34;;;;;;;5.67;5.10;;;;;;;;;;5093608;28;20237;-70
2021/03/21 00:37:18;;;;;;;4.67;4.27;;;;;;;;;;5092459;28;20861;-70
2021/03/21 00:40:03;;;;;;;4.47;4.07;;;;;;;;;;5093505;28;20206;-70
2021/03/21 00:42:48;;;;;;;6.40;5.80;;;;;;;;;;5092723;28;20229;-70
2021/03/21 00:45:32;;;;;;;9.13;8.32;;;;;;;;;;5092189;28;20494;-70
2021/03/21 00:48:19;;;;;;;10.30;9.03;;;;;;;;;;5092809;28;20209;-70
2021/03/21 00:51:04;;;;;;;7.10;6.50;;;;;;;;;;5093190;28;20209;-70
2021/03/21 00:53:48;;;;;;;6.27;4.57;;;;;;;;;;5093178;28;20700;-70
2021/03/21 00:56:34;;;;;;;4.70;3.97;;;;;;;;;;5092649;28;20210;-70
2021/03/21 00:59:18;;;;;;;5.07;4.67;;;;;;;;;;5092084;28;20770;-70
2021/03/21 01:02:03;;;;;;;4.23;3.83;;;;;;;;;;5092663;28;21050;-70
2021/03/21 01:04:48;;;;;;;4.40;4.00;;;;;;;;;;5093138;28;20577;-70
2021/03/21 01:07:33;;;;;;;3.73;3.33;;;;;;;;;;5092331;28;20220;-70
2021/03/21 01:10:18;;;;;;;4.00;3.60;;;;;;;;;;5092604;28;20212;-70
2021/03/21 01:13:03;;;;;;;3.80;3.50;;;;;;;;;;5072682;28;20304;-70
2021/03/21 01:15:47;;;;;;;3.50;3.20;;;;;;;;;;5076601;28;20245;-70
2021/03/21 01:18:33;;;;;;;4.57;4.07;;;;;;;;;;5092244;28;20262;-69
2021/03/21 01:21:20;;;;;;;4.77;4.37;;;;;;;;;;5091870;28;20221;-70
2021/03/21 01:24:04;;;;;;;5.87;5.47;;;;;;;;;;5092581;28;20220;-70
2021/03/21 01:26:49;;;;;;;6.50;6.00;;;;;;;;;;5091575;28;20273;-70
2021/03/21 01:29:33;;;;;;;6.80;6.30;;;;;;;;;;5092435;28;20200;-70
2021/03/21 01:32:18;;;;;;;6.50;5.77;;;;;;;;;;5092637;28;20223;-70
2021/03/21 01:35:03;;;;;;;6.57;6.00;;;;;;;;;;5091699;28;20232;-69
2021/03/21 01:37:48;;;;;;;7.53;6.80;;;;;;;;;;5091541;28;20562;-70
2021/03/21 01:40:34;;;;;;;9.60;8.70;;;;;;;;;;5091965;28;20246;-70
2021/03/21 01:43:19;;;;;;;8.27;7.50;;;;;;;;;;5092151;28;20093;-70
2021/03/21 01:46:04;;;;;;;7.43;6.83;;;;;;;;;;5091365;28;20208;-70
2021/03/21 01:48:50;;;;;;;6.73;6.07;;;;;;;;;;5092749;28;20243;-70
2021/03/21 01:51:36;;;;;;;5.03;4.63;;;;;;;;;;5091800;28;20205;-70
2021/03/21 01:54:23;;;;;;;5.47;4.97;;;;;;;;;;5091903;28;20200;-70
2021/03/21 01:57:08;;;;;;;5.03;4.63;;;;;;;;;;5091543;28;20213;-70
2021/03/21 01:59:53;;;;;;;4.93;4.43;;;;;;;;;;5091747;28;20209;-70
2021/03/21 02:02:37;;;;;;;5.40;5.00;;;;;;;;;;5091457;28;20278;-70
2021/03/21 02:05:22;;;;;;;6.40;5.90;;;;;;;;;;5091794;28;20199;-70
2021/03/21 02:08:14;;;;;;;7.00;6.50;;;;;;;;;;5090943;28;20687;-70
2021/03/21 02:11:04;;;;;;;7.67;7.03;;;;;;;;;;5091508;28;20737;-70
2021/03/21 02:13:52;;;;;;;6.93;6.23;;;;;;;;;;5091725;28;20243;-70
2021/03/21 02:16:39;;;;;;;7.03;6.40;;;;;;;;;;5071197;28;20253;-70
2021/03/21 02:19:39;;;;;;;7.03;6.30;;;;;;;;;;5091151;28;20213;-70
2021/03/21 02:22:27;;;;;;;7.60;7.00;;;;;;;;;;5091095;28;20241;-70
2021/03/21 02:25:25;;;;;;;6.40;5.90;;;;;;;;;;5091251;28;20206;-70
2021/03/21 02:28:16;;;;;;;6.10;5.60;;;;;;;;;;5090938;28;20201;-70
2021/03/21 02:31:03;;;;;;;12.80;11.77;;;;;;;;;;5089997;28;20790;-70
2021/03/21 02:33:50;;;;;;;9.87;9.17;;;;;;;;;;5090967;28;20226;-70
2021/03/21 02:36:38;;;;;;;8.50;7.70;;;;;;;;;;5090659;28;20230;-70
2021/03/21 02:39:26;;;;;;;8.60;7.90;;;;;;;;;;5091035;28;20229;-70
2021/03/21 02:42:15;;;;;;;9.07;8.27;;;;;;;;;;5091000;28;20237;-70
2021/03/21 02:45:01;;;;;;;10.60;9.67;;;;;;;;;;5090890;28;20232;-70
2021/03/21 02:47:48;;;;;;;11.57;10.47;;;;;;;;;;5090870;28;20240;-70
2021/03/21 02:50:35;;;;;;;11.97;10.97;;;;;;;;;;5090891;28;20201;-70
2021/03/21 02:53:21;;;;;;;11.43;10.07;;;;;;;;;;5090527;28;20236;-70
2021/03/21 02:56:07;;;;;;;10.53;9.63;;;;;;;;;;5090622;28;20347;-70
2021/03/21 02:58:53;;;;;;;10.47;9.57;;;;;;;;;;5090693;28;20548;-70
2021/03/21 03:01:39;;;;;;;10.97;10.03;;;;;;;;;;5090928;28;20234;-70
2021/03/21 03:04:26;;;;;;;14.95;13.75;;;;;;;;;;5089580;28;20483;-70
2021/03/21 03:07:14;;;;;;;12.90;11.67;;;;;;;;;;5090580;28;20290;-70
2021/03/21 03:10:02;;;;;;;12.57;11.43;;;;;;;;;;5090550;28;20716;-70
2021/03/21 03:12:49;;;;;;;14.47;13.07;;;;;;;;;;5090848;28;20225;-70
2021/03/21 03:15:33;;;;;;;14.87;13.00;;;;;;;;;;5072156;28;20206;-70
2021/03/21 03:18:23;;;;;;;19.02;17.38;;;;;;;;;;5089124;28;20408;-70
2021/03/21 03:21:12;;;;;;;15.47;13.87;;;;;;;;;;5090623;28;20221;-70
2021/03/21 03:23:59;;;;;;;15.57;13.97;;;;;;;;;;5090490;28;20226;-70
2021/03/21 03:26:46;;;;;;;16.83;15.33;;;;;;;;;;5090224;28;20763;-70
2021/03/21 03:29:34;;;;;;;16.50;14.83;;;;;;;;;;5090303;28;20199;-70
2021/03/21 03:32:19;;;;;;;17.50;15.80;;;;;;;;;;5086665;28;20221;-70
2021/03/21 03:35:05;;;;;;;18.63;16.73;;;;;;;;;;5091032;28;20279;-70
2021/03/21 03:37:50;;;;;;;19.97;18.03;;;;;;;;;;5090649;28;20198;-70
2021/03/21 03:40:36;;;;;;;18.70;16.87;;;;;;;;;;5090042;28;20353;-70
2021/03/21 03:43:25;;;;;;;18.67;16.83;;;;;;;;;;5092449;28;20230;-70
2021/03/21 03:46:14;;;;;;;19.47;17.47;;;;;;;;;;5094026;28;20206;-70
2021/03/21 03:49:02;;;;;;;19.13;17.10;;;;;;;;;;5094558;28;20208;-69
2021/03/21 03:51:53;;;;;;;20.77;18.67;;;;;;;;;;5094327;28;20204;-70
2021/03/21 03:54:42;;;;;;;20.63;18.63;;;;;;;;;;5094560;28;20197;-69
2021/03/21 03:57:28;;;;;;;18.53;16.57;;;;;;;;;;5093774;28;20221;-70
2021/03/21 04:00:19;;;;;;;19.13;17.13;;;;;;;;;;5094312;28;20240;-70
2021/03/21 04:03:11;;;;;;;18.53;16.63;;;;;;;;;;5093633;28;20241;-70
2021/03/21 04:05:57;;;;;;;25.10;22.80;;;;;;;;;;5092414;28;20422;-70
2021/03/21 04:08:44;;;;;;;21.23;18.90;;;;;;;;;;5094070;28;20206;-70
2021/03/21 04:11:32;;;;;;;19.73;17.53;;;;;;;;;;5094079;28;20207;-70
2021/03/21 04:14:19;;;;;;;19.57;17.53;;;;;;;;;;5093938;28;20215;-70
2021/03/21 04:17:07;;;;;;;20.63;18.00;;;;;;;;;;5093542;28;20203;-70
2021/03/21 04:19:54;;;;;;;19.43;17.27;;;;;;;;;;5094055;28;20211;-70
2021/03/21 04:22:42;;;;;;;17.40;15.33;;;;;;;;;;5093588;28;20752;-70
2021/03/21 04:25:28;;;;;;;17.47;15.20;;;;;;;;;;5093939;28;20201;-70
2021/03/21 04:28:16;;;;;;;17.63;15.23;;;;;;;;;;5093287;28;20230;-70
2021/03/21 04:31:02;;;;;;;19.87;14.90;;;;;;;;;;5093744;28;20197;-70
2021/03/21 04:33:48;;;;;;;15.80;14.10;;;;;;;;;;5093310;28;20233;-70
2021/03/21 04:36:35;;;;;;;16.23;14.57;;;;;;;;;;5093097;28;20202;-69
2021/03/21 04:39:21;;;;;;;17.30;14.70;;;;;;;;;;5093449;28;20207;-70
2021/03/21 04:42:07;;;;;;;18.20;14.70;;;;;;;;;;5093297;28;20630;-70
2021/03/21 04:44:54;;;;;;;16.97;14.63;;;;;;;;;;5093051;28;20209;-70
2021/03/21 04:47:42;;;;;;;15.17;12.83;;;;;;;;;;5092991;28;20236;-70
2021/03/21 04:50:27;;;;;;;18.02;16.13;;;;;;;;;;5092784;28;20426;-70
2021/03/21 04:53:16;;;;;;;17.63;15.23;;;;;;;;;;5092967;28;20580;-70
2021/03/21 04:56:02;;;;;;;16.13;14.17;;;;;;;;;;5092646;28;20634;-70
2021/03/21 04:58:49;;;;;;;15.43;13.57;;;;;;;;;;5092846;28;20216;-70
2021/03/21 05:01:36;;;;;;;17.77;14.10;;;;;;;;;;5072568;28;20763;-70
2021/03/21 05:04:22;;;;;;;18.40;14.47;;;;;;;;;;5082624;28;20260;-70
2021/03/21 05:07:10;;;;;;;15.63;13.37;;;;;;;;;;5076450;28;20205;-69
2021/03/21 05:09:56;;;;;;;18.80;14.17;;;;;;;;;;5089205;28;20607;-69
2021/03/21 05:12:43;;;;;;;18.03;12.80;;;;;;;;;;5092816;28;20231;-70
2021/03/21 05:15:29;;;;;;;14.00;11.70;;;;;;;;;;5092717;28;20750;-70
2021/03/21 05:18:28;;;;;;;15.40;12.03;;;;;;;;;;5073752;28;20206;-69
2021/03/21 05:21:15;;;;;;;12.03;9.57;;;;;;;;;;5091842;28;20214;-69
2021/03/21 05:24:02;;;;;;;12.83;9.23;;;;;;;;;;5090893;28;20225;-70
2021/03/21 05:26:50;;;;;;;10.67;8.13;;;;;;;;;;5090402;28;20556;-69
2021/03/21 05:29:39;;;;;;;11.87;8.17;;;;;;;;;;5092267;28;20245;-70
2021/03/21 05:32:23;;;;;;;12.77;7.53;;;;;;;;;;5076883;28;20310;-70
2021/03/21 05:35:11;;;;;;;10.37;7.70;;;;;;;;;;5071943;28;20272;-69
2021/03/21 05:38:06;;;;;;;10.83;6.97;;;;;;;;;;5085708;28;20787;-69
2021/03/21 05:41:15;;;;;;;11.03;6.60;;;;;;;;;;5073824;28;20255;-69
2021/03/21 05:44:15;;;;;;;9.33;5.43;;;;;;;;;;5092276;28;20198;-69
2021/03/21 05:47:14;;;;;;;9.80;5.20;;;;;;;;;;5088991;28;20293;-69
2021/03/21 05:50:07;;;;;;;8.47;5.07;;;;;;;;;;5086639;28;20249;-69
2021/03/21 05:53:09;;;;;;;8.67;4.50;;;;;;;;;;5071802;28;20242;-70
2021/03/21 05:56:02;;;;;;;6.47;3.80;;;;;;;;;;5071656;28;20689;-70
2021/03/21 05:58:58;;;;;;;8.07;3.80;;;;;;;;;;5071956;28;20217;-69
2021/03/21 06:02:01;;;;;;;6.63;2.77;;;;;;;;;;5077454;28;20252;-69
2021/03/21 06:05:03;;;;;;;6.97;3.00;;;;;;;;;;5071437;28;20721;-69
2021/03/21 06:07:52;;;;;;;6.70;3.00;;;;;;;;;;5070975;28;20210;-70
2021/03/21 06:11:02;;;;;;;6.70;2.60;;;;;;;;;;5071932;28;20581;-69
2021/03/21 06:13:52;;;;;;;6.47;3.10;;;;;;;;;;5071343;28;20243;-69
2021/03/21 06:16:43;;;;;;;6.93;2.43;;;;;;;;;;5084433;28;20287;-69
2021/03/21 06:19:40;;;;;;;6.63;2.83;;;;;;;;;;5091509;28;20243;-69
2021/03/21 06:22:50;;;;;;;6.87;3.10;;;;;;;;;;5091241;28;20225;-70
2021/03/21 06:25:43;;;;;;;9.20;2.95;;;;;;;;;;5088825;28;20424;-69
2021/03/21 06:28:45;;;;;;;7.93;2.87;;;;;;;;;;5071497;28;20260;-69
2021/03/21 06:31:42;;;;;;;6.47;2.70;;;;;;;;;;5051878;28;20211;-69
2021/03/21 06:34:32;;;;;;;7.50;2.77;;;;;;;;;;5071323;28;20700;-70
2021/03/21 06:37:27;;;;;;;5.13;2.17;;;;;;;;;;5089846;28;20211;-70
2021/03/21 06:40:30;;;;;;;8.93;2.60;;;;;;;;;;5090955;28;20571;-70
2021/03/21 06:43:19;;;;;;;9.30;2.77;;;;;;;;;;5070674;28;20234;-69
2021/03/21 06:46:08;;;;;;;6.77;2.40;;;;;;;;;;5079204;28;20280;-69
2021/03/21 06:49:02;;;;;;;7.03;2.80;;;;;;;;;;5091274;28;20234;-70
2021/03/21 06:51:50;;;;;;;8.87;2.97;;;;;;;;;;5088760;28;20245;-70
2021/03/21 06:54:37;;;;;;;8.80;2.90;;;;;;;;;;5090902;28;20567;-70
2021/03/21 06:57:40;;;;;;;8.07;2.73;;;;;;;;;;5089874;28;20221;-70
2021/03/21 07:00:48;;;;;;;9.47;2.57;;;;;;;;;;5090549;28;20221;-70
2021/03/21 07:03:54;;;;;;;11.37;3.00;;;;;;;;;;5074008;28;20278;-70
2021/03/21 07:06:56;;;;;;;11.57;2.97;;;;;;;;;;5083232;28;20245;-69
2021/03/21 07:10:01;;;;;;;7.23;2.90;;;;;;;;;;5085910;28;20256;-69
2021/03/21 07:13:09;;;;;;;10.38;3.55;;;;;;;;;;5070281;28;20402;-69
2021/03/21 07:16:04;;;;;;;9.70;2.73;;;;;;;;;;5070066;28;20766;-69
2021/03/21 07:18:59;;;;;;;4.77;2.30;;;;;;;;;;5073598;28;20207;-69
2021/03/21 07:22:18;;;;;;;7.70;2.93;;;;;;;;;;5074556;28;20370;-70
2021/03/21 07:25:14;;;;;;;9.60;2.63;;;;;;;;;;5074727;28;20254;-69
2021/03/21 07:28:08;;;;;;;9.83;4.30;;;;;;;;;;5074014;28;20215;-69
2021/03/21 07:30:57;;;;;;;11.90;2.77;;;;;;;;;;5074453;28;20695;-70
2021/03/21 07:33:54;;;;;;;8.63;2.33;;;;;;;;;;5074697;28;20213;-70
2021/03/21 07:36:45;;;;;;;8.23;3.00;;;;;;;;;;5073808;28;20245;-70
2021/03/21 07:39:40;;;;;;;7.87;2.80;;;;;;;;;;5074140;28;20628;-69
2021/03/21 07:42:33;;;;;;;7.07;2.43;;;;;;;;;;5074087;28;20253;-70
2021/03/21 07:45:32;;;;;;;8.20;3.13;;;;;;;;;;5074244;28;20596;-69
2021/03/21 07:48:24;;;;;;;8.17;2.67;;;;;;;;;;5073945;28;20278;-69
2021/03/21 07:51:15;;;;;;;11.03;2.90;;;;;;;;;;5077601;28;20211;-69
2021/03/21 07:54:05;;;;;;;10.07;2.60;;;;;;;;;;5094470;28;20709;-70
2021/03/21 07:56:50;;;;;;;10.97;3.00;;;;;;;;;;5093020;28;20654;-69
2021/03/21 07:59:36;;;;;;;8.13;2.90;;;;;;;;;;5094548;28;20198;-69
2021/03/21 08:02:22;;;;;;;9.30;3.47;;;;;;;;;;5091717;28;20231;-69
2021/03/21 08:05:08;;;;;;;8.93;3.30;;;;;;;;;;5074000;28;20211;-70
2021/03/21 08:07:53;;;;;;;11.27;3.90;;;;;;;;;;5073073;28;20203;-69
2021/03/21 08:10:39;;;;;;;8.87;2.93;;;;;;;;;;5073537;28;20254;-70
2021/03/21 08:13:41;;;;;;;9.53;3.13;;;;;;;;;;5073707;28;20223;-69
2021/03/21 08:16:28;;;;;;;10.20;3.73;;;;;;;;;;5083421;28;20256;-69
2021/03/21 08:19:16;;;;;;;8.90;2.93;;;;;;;;;;5093770;28;20252;-69
2021/03/21 08:22:01;;;;;;;12.53;3.27;;;;;;;;;;5083766;28;20243;-70
2021/03/21 08:24:47;;;;;;;9.90;3.00;;;;;;;;;;5073784;28;20219;-73
2021/03/21 08:27:32;;;;;;;11.40;3.70;;;;;;;;;;5072903;28;20712;-73
2021/03/21 08:30:17;;;;;;;9.37;3.37;;;;;;;;;;5089869;28;20686;-69
2021/03/21 08:33:03;;;;;;;17.03;5.13;;;;;;;;;;5073759;28;20232;-72
2021/03/21 08:36:05;;;;;;;13.10;3.60;;;;;;;;;;5092972;28;20213;-70
2021/03/21 08:38:59;;;;;;;18.07;4.40;;;;;;;;;;5092070;28;20215;-71
2021/03/21 08:41:48;;;;;;;16.05;4.38;;;;;;;;;;5092801;28;20351;-69
2021/03/21 08:44:35;;;;;;;10.73;3.17;;;;;;;;;;5093325;28;20291;-70
2021/03/21 08:47:21;;;;;;;14.97;4.43;;;;;;;;;;5087507;28;20323;-71
2021/03/21 08:50:07;;;;;;;10.87;3.27;;;;;;;;;;5092252;28;20206;-70
2021/03/21 08:52:51;;;;;;;11.73;3.80;;;;;;;;;;5092549;28;20222;-70
2021/03/21 08:55:36;;;;;;;15.33;4.13;;;;;;;;;;5092433;28;20276;-69
2021/03/21 08:58:21;;;;;;;16.67;4.07;;;;;;;;;;5088383;28;20239;-69
2021/03/21 09:01:10;;;;;;;21.37;4.70;;;;;;;;;;5082861;28;20222;-69
2021/03/21 09:04:08;;;;;;;13.97;3.90;;;;;;;;;;5091683;28;20199;-69
2021/03/21 09:06:54;;;;;;;16.93;4.40;;;;;;;;;;5092435;28;20196;-69
2021/03/21 09:09:38;;;;;;;21.23;5.10;;;;;;;;;;5092493;28;20208;-69
2021/03/21 09:12:28;;;;;;;14.73;4.03;;;;;;;;;;5092676;28;20246;-70
2021/03/21 09:15:21;;;;;;;13.73;4.33;;;;;;;;;;5072105;28;20212;-71
2021/03/21 09:18:13;;;;;;;16.40;5.07;;;;;;;;;;5072120;28;20232;-73
2021/03/21 09:21:19;;;;;;;18.67;5.07;;;;;;;;;;5072218;28;20227;-69
2021/03/21 09:24:10;;;;;;;17.70;5.00;;;;;;;;;;5073544;28;20273;-70
2021/03/21 09:27:12;;;;;;;24.13;6.20;;;;;;;;;;5091879;28;20445;-71
2021/03/21 09:29:58;;;;;;;17.87;6.00;;;;;;;;;;5075662;28;20216;-69
2021/03/21 09:32:42;;;;;;;25.03;7.83;;;;;;;;;;5071961;28;20219;-69
2021/03/21 09:35:32;;;;;;;20.33;5.93;;;;;;;;;;5072115;28;20651;-70
2021/03/21 09:38:18;;;;;;;19.73;5.63;;;;;;;;;;5080097;28;20285;-71
2021/03/21 09:41:07;;;;;;;21.90;6.70;;;;;;;;;;5070903;28;20224;-70
2021/03/21 09:43:54;;;;;;;27.60;7.90;;;;;;;;;;5081771;28;20277;-71
2021/03/21 09:46:44;;;;;;;22.87;5.50;;;;;;;;;;5091095;28;20333;-71
2021/03/21 09:49:37;;;;;;;21.60;5.67;;;;;;;;;;5079789;28;20283;-71
2021/03/21 09:52:35;;;;;;;22.23;5.23;;;;;;;;;;5091809;28;20298;-70
2021/03/21 09:55:25;;;;;;;17.47;4.73;;;;;;;;;;5076569;28;20223;-70
2021/03/21 09:58:15;;;;;;;22.27;5.63;;;;;;;;;;5076083;28;20317;-69
2021/03/21 10:01:03;;;;;;;19.07;5.33;;;;;;;;;;5084609;28;20196;-69
2021/03/21 10:03:52;;;;;;;13.77;4.27;;;;;;;;;;5085951;28;20208;-67
2021/03/21 10:06:38;;;;;;;20.80;5.90;;;;;;;;;;5069919;28;20595;-69
2021/03/21 10:09:25;;;;;;;18.93;5.60;;;;;;;;;;5085885;28;20211;-68
2021/03/21 10:12:11;;;;;;;21.63;5.00;;;;;;;;;;5089581;28;20687;-68
2021/03/21 10:15:00;;;;;;;21.47;5.80;;;;;;;;;;5089719;28;20200;-68
2021/03/21 10:17:46;;;;;;;19.83;5.23;;;;;;;;;;5070846;28;20246;-68
2021/03/21 10:20:49;;;;;;;15.77;4.93;;;;;;;;;;5070728;28;20199;-68
2021/03/21 10:23:59;;;;;;;21.57;5.43;;;;;;;;;;5070160;28;20241;-68
2021/03/21 10:27:02;;;;;;;21.90;4.80;;;;;;;;;;5067347;28;20201;-68
2021/03/21 10:29:50;;;;;;;18.93;5.00;;;;;;;;;;5089501;28;20206;-68
2021/03/21 10:32:36;;;;;;;19.97;5.17;;;;;;;;;;5089354;28;20240;-67
2021/03/21 10:35:39;;;;;;;19.27;6.60;;;;;;;;;;5091175;28;20217;-67
2021/03/21 10:38:43;;;;;;;19.20;6.53;;;;;;;;;;5084239;28;20296;-69
2021/03/21 10:41:46;;;;;;;16.30;5.17;;;;;;;;;;5090778;28;20230;-69
2021/03/21 10:44:50;;;;;;;22.38;7.40;;;;;;;;;;5080894;28;20437;-69
2021/03/21 10:47:46;;;;;;;24.90;7.97;;;;;;;;;;5090281;28;20223;-69
2021/03/21 10:50:46;;;;;;;12.50;4.47;;;;;;;;;;5091139;28;20207;-69
2021/03/21 10:53:32;;;;;;;18.70;4.63;;;;;;;;;;5087941;28;20200;-70
2021/03/21 10:56:17;;;;;;;25.57;7.20;;;;;;;;;;5075843;28;20254;-69
2021/03/21 10:59:19;;;;;;;22.73;6.37;;;;;;;;;;5089781;28;20287;-69
2021/03/21 11:02:19;;;;;;;23.20;6.00;;;;;;;;;;5090395;28;20234;-70
2021/03/21 11:05:06;;;;;;;21.37;5.63;;;;;;;;;;5090481;28;20200;-69
2021/03/21 11:08:00;;;;;;;29.13;6.07;;;;;;;;;;5089665;28;20272;-69
2021/03/21 11:10:46;;;;;;;22.63;6.63;;;;;;;;;;5090633;28;20218;-69
2021/03/21 11:13:31;;;;;;;29.57;6.83;;;;;;;;;;5088404;28;20239;-69
2021/03/21 11:16:17;;;;;;;16.07;4.70;;;;;;;;;;5089625;28;20207;-69
2021/03/21 11:19:03;;;;;;;18.80;6.03;;;;;;;;;;5088305;28;20246;-69
2021/03/21 11:21:49;;;;;;;20.67;5.70;;;;;;;;;;5070575;28;20270;-69
2021/03/21 11:24:34;;;;;;;21.87;5.00;;;;;;;;;;5070710;28;20226;-70
2021/03/21 11:27:29;;;;;;;23.50;6.83;;;;;;;;;;5070481;28;20285;-69
2021/03/21 11:30:15;;;;;;;17.60;4.97;;;;;;;;;;5070259;28;20292;-70
2021/03/21 11:33:15;;;;;;;18.73;5.27;;;;;;;;;;5082285;28;20254;-69
2021/03/21 11:36:07;;;;;;;16.87;4.60;;;;;;;;;;5081207;28;20257;-70
2021/03/21 11:38:53;;;;;;;17.20;4.53;;;;;;;;;;5070480;28;20205;-69
2021/03/21 11:41:38;;;;;;;17.73;5.60;;;;;;;;;;5080899;28;20277;-71
2021/03/21 11:44:25;;;;;;;19.08;5.88;;;;;;;;;;5089509;28;20424;-75
2021/03/21 11:47:11;;;;;;;18.63;5.37;;;;;;;;;;5084816;28;20196;-72
2021/03/21 11:49:57;;;;;;;18.87;5.53;;;;;;;;;;5070331;28;20769;-72
2021/03/21 11:52:42;;;;;;;25.63;6.00;;;;;;;;;;5087356;28;20232;-73
2021/03/21 11:55:29;;;;;;;24.53;5.63;;;;;;;;;;5089787;28;20215;-75
2021/03/21 11:58:16;;;;;;;26.73;6.67;;;;;;;;;;5084969;28;20295;-71
2021/03/21 12:01:01;;;;;;;19.73;5.37;;;;;;;;;;5090138;28;20227;-72
2021/03/21 12:03:47;;;;;;;23.57;6.40;;;;;;;;;;5090935;28;20242;-77
2021/03/21 12:06:32;;;;;;;20.40;6.00;;;;;;;;;;5093536;28;20250;-70
2021/03/21 12:09:23;;;;;;;26.77;9.27;;;;;;;;;;5094352;28;20567;-71
2021/03/21 12:12:28;;;;;;;22.17;7.30;;;;;;;;;;5093897;28;20278;-71
2021/03/21 12:15:16;;;;;;;21.40;7.03;;;;;;;;;;5094082;28;20199;-70
2021/03/21 12:18:01;;;;;;;21.27;7.80;;;;;;;;;;5093831;28;20516;-70
2021/03/21 12:20:46;;;;;;;19.90;6.53;;;;;;;;;;5093650;28;20725;-70
2021/03/21 12:23:38;;;;;;;19.80;5.33;;;;;;;;;;5093494;28;20238;-70
2021/03/21 12:26:27;;;;;;;19.27;6.72;;;;;;;;;;5092826;28;20491;-70
2021/03/21 12:29:29;;;;;;;15.97;5.33;;;;;;;;;;5093703;28;20199;-70
2021/03/21 12:32:26;;;;;;;15.50;5.30;;;;;;;;;;5093692;28;20281;-70
2021/03/21 12:35:12;;;;;;;23.37;7.63;;;;;;;;;;5093794;28;20202;-70
2021/03/21 12:37:59;;;;;;;28.30;6.83;;;;;;;;;;5093085;28;20224;-70
2021/03/21 12:40:44;;;;;;;16.70;5.30;;;;;;;;;;5093365;28;20692;-71
2021/03/21 12:43:29;;;;;;;20.87;5.70;;;;;;;;;;5093343;28;20733;-70
2021/03/21 12:46:14;;;;;;;28.47;7.83;;;;;;;;;;5092920;28;20696;-70
2021/03/21 12:49:03;;;;;;;23.43;6.00;;;;;;;;;;5093449;28;20254;-70
2021/03/21 12:51:48;;;;;;;21.17;6.43;;;;;;;;;;5093195;28;20566;-70
2021/03/21 12:54:33;;;;;;;22.03;6.03;;;;;;;;;;5093294;28;20199;-70
2021/03/21 12:57:17;;;;;;;29.57;7.17;;;;;;;;;;5092778;28;20203;-70
2021/03/21 13:00:04;;;;;;;19.53;6.23;;;;;;;;;;5093344;28;20235;-70
2021/03/21 13:02:51;;;;;;;18.13;5.33;;;;;;;;;;5092664;28;20219;-71
2021/03/21 13:05:38;;;;;;;21.37;6.17;;;;;;;;;;5093046;28;20200;-70
2021/03/21 13:08:23;;;;;;;17.80;5.47;;;;;;;;;;5092856;28;20240;-70
2021/03/21 13:11:09;;;;;;;23.08;6.75;;;;;;;;;;5092035;28;20449;-71
2021/03/21 13:13:53;;;;;;;24.50;8.13;;;;;;;;;;5093100;28;20254;-71
2021/03/21 13:16:38;;;;;;;29.90;10.03;;;;;;;;;;5092343;28;20251;-71
2021/03/21 13:19:22;;;;;;;29.23;9.77;;;;;;;;;;5092401;28;20234;-71
2021/03/21 13:22:08;;;;;;;22.43;8.20;;;;;;;;;;5092621;28;20300;-71
2021/03/21 13:24:52;;;;;;;26.33;8.67;;;;;;;;;;5092564;28;20210;-71
2021/03/21 13:27:37;;;;;;;27.77;9.97;;;;;;;;;;5092082;28;20226;-71
2021/03/21 13:30:23;;;;;;;16.93;7.23;;;;;;;;;;5092532;28;20199;-71
2021/03/21 13:33:09;;;;;;;27.90;9.10;;;;;;;;;;5092571;28;20708;-71
2021/03/21 13:35:55;;;;;;;21.90;7.13;;;;;;;;;;5092013;28;20218;-70
2021/03/21 13:38:40;;;;;;;20.23;6.83;;;;;;;;;;5092633;28;20199;-71
2021/03/21 13:41:25;;;;;;;24.97;8.93;;;;;;;;;;5092266;28;20262;-70
2021/03/21 13:44:09;;;;;;;21.77;6.87;;;;;;;;;;5092819;28;20202;-70
2021/03/21 13:46:54;;;;;;;18.97;7.00;;;;;;;;;;5091602;28;20241;-71
2021/03/21 13:49:38;;;;;;;19.33;7.03;;;;;;;;;;5092180;28;20200;-70
2021/03/21 13:52:23;;;;;;;23.40;8.13;;;;;;;;;;5092455;28;20226;-71
2021/03/21 13:55:10;;;;;;;21.77;7.53;;;;;;;;;;5091701;28;20448;-71
2021/03/21 13:57:55;;;;;;;22.37;7.80;;;;;;;;;;5091828;28;20220;-71
2021/03/21 14:00:39;;;;;;;25.47;6.63;;;;;;;;;;5092091;28;20269;-71
2021/03/21 14:03:24;;;;;;;21.60;6.33;;;;;;;;;;5091816;28;20639;-71
2021/03/21 14:06:09;;;;;;;20.43;6.83;;;;;;;;;;5091454;28;20219;-71
2021/03/21 14:08:53;;;;;;;22.70;6.10;;;;;;;;;;5091887;28;20204;-71
2021/03/21 14:11:39;;;;;;;22.83;6.73;;;;;;;;;;5091895;28;20219;-71
2021/03/21 14:14:23;;;;;;;17.23;5.80;;;;;;;;;;5091754;28;20208;-71
2021/03/21 14:17:08;;;;;;;19.37;6.63;;;;;;;;;;5091205;28;20242;-71
2021/03/21 14:19:52;;;;;;;20.23;5.27;;;;;;;;;;5091783;28;20717;-70
2021/03/21 14:22:37;;;;;;;14.53;4.90;;;;;;;;;;5090687;28;20231;-71
2021/03/21 14:25:22;;;;;;;20.33;6.30;;;;;;;;;;5088989;28;20292;-71
2021/03/21 14:28:08;;;;;;;22.83;7.40;;;;;;;;;;5069804;28;20438;-71
2021/03/21 14:30:54;;;;;;;16.70;5.00;;;;;;;;;;5083558;28;20235;-71
2021/03/21 14:33:38;;;;;;;19.40;5.83;;;;;;;;;;5091738;28;20203;-71
2021/03/21 14:36:23;;;;;;;22.27;6.00;;;;;;;;;;5090947;28;20243;-71
2021/03/21 14:39:07;;;;;;;24.53;8.03;;;;;;;;;;5091303;28;20622;-71
2021/03/21 14:41:52;;;;;;;23.65;9.80;;;;;;;;;;5090506;28;20845;-71
2021/03/21 14:44:37;;;;;;;17.13;6.20;;;;;;;;;;5091352;28;20624;-70
2021/03/21 14:47:21;;;;;;;22.37;6.07;;;;;;;;;;5090810;28;20216;-71
2021/03/21 14:50:07;;;;;;;17.33;5.07;;;;;;;;;;5091212;28;20294;-71
2021/03/21 14:52:52;;;;;;;19.33;5.83;;;;;;;;;;5091492;28;20576;-71
2021/03/21 14:55:42;;;;;;;18.83;5.80;;;;;;;;;;5091234;28;20213;-71
2021/03/21 14:58:28;;;;;;;20.20;6.60;;;;;;;;;;5091301;28;20728;-71
2021/03/21 15:01:13;;;;;;;18.57;6.10;;;;;;;;;;5090772;28;20268;-71
2021/03/21 15:03:58;;;;;;;15.10;5.77;;;;;;;;;;5090784;28;20246;-71
2021/03/21 15:06:42;;;;;;;29.77;13.20;;;;;;;;;;5090596;28;20685;-70
2021/03/21 15:09:27;;;;;;;22.33;7.57;;;;;;;;;;5091003;28;20584;-71
2021/03/21 15:12:12;;;;;;;20.37;6.40;;;;;;;;;;5090984;28;20751;-71
2021/03/21 15:14:56;;;;;;;24.67;6.60;;;;;;;;;;5090859;28;20199;-71
2021/03/21 15:17:42;;;;;;;21.23;5.80;;;;;;;;;;5090284;28;20303;-70
2021/03/21 15:20:29;;;;;;;20.03;5.77;;;;;;;;;;5090814;28;20207;-70
2021/03/21 15:23:15;;;;;;;15.73;5.70;;;;;;;;;;5090575;28;20230;-70
2021/03/21 15:26:00;;;;;;;16.93;5.70;;;;;;;;;;5090166;28;20261;-70
2021/03/21 15:28:49;;;;;;;21.40;6.70;;;;;;;;;;5089447;28;20386;-70
2021/03/21 15:31:36;;;;;;;18.83;6.43;;;;;;;;;;5090665;28;20597;-71
2021/03/21 15:34:22;;;;;;;20.83;6.30;;;;;;;;;;5090447;28;20594;-70
2021/03/21 15:37:06;;;;;;;15.50;4.97;;;;;;;;;;5090090;28;20227;-71
2021/03/21 15:39:51;;;;;;;18.33;5.57;;;;;;;;;;5093340;28;20199;-71
2021/03/21 15:42:35;;;;;;;17.20;4.90;;;;;;;;;;5094582;28;20717;-70
2021/03/21 15:45:21;;;;;;;22.13;6.13;;;;;;;;;;5094658;28;20205;-70
2021/03/21 15:48:06;;;;;;;17.33;4.63;;;;;;;;;;5094121;28;20663;-70
2021/03/21 15:50:51;;;;;;;19.13;5.30;;;;;;;;;;5094869;28;20491;-70
2021/03/21 15:53:35;;;;;;;20.43;5.93;;;;;;;;;;5094737;28;20648;-70
2021/03/21 15:56:20;;;;;;;20.30;5.63;;;;;;;;;;5093987;28;20337;-71
2021/03/21 15:59:04;;;;;;;12.13;4.13;;;;;;;;;;5094548;28;20287;-71
2021/03/21 16:01:49;;;;;;;19.27;6.43;;;;;;;;;;5094304;28;20634;-70
2021/03/21 16:04:33;;;;;;;19.43;6.00;;;;;;;;;;5094256;28;20203;-70
2021/03/21 16:07:19;;;;;;;21.23;8.23;;;;;;;;;;5093892;28;20204;-70
2021/03/21 16:10:04;;;;;;;19.27;6.17;;;;;;;;;;5094061;28;20295;-70
2021/03/21 16:12:48;;;;;;;14.13;4.83;;;;;;;;;;5093994;28;20233;-70
2021/03/21 16:15:33;;;;;;;16.43;4.57;;;;;;;;;;5094294;28;20203;-70
2021/03/21 16:18:17;;;;;;;12.23;4.60;;;;;;;;;;5093349;28;20684;-70
2021/03/21 16:21:02;;;;;;;17.93;4.80;;;;;;;;;;5093842;28;20231;-70
2021/03/21 16:23:48;;;;;;;16.10;4.97;;;;;;;;;;5093954;28;20239;-70
2021/03/21 16:26:33;;;;;;;13.43;4.33;;;;;;;;;;5093102;28;20726;-70
2021/03/21 16:29:18;;;;;;;19.23;5.00;;;;;;;;;;5093689;28;20280;-70
2021/03/21 16:32:02;;;;;;;19.53;4.97;;;;;;;;;;5093955;28;20219;-70
2021/03/21 16:34:47;;;;;;;18.37;6.43;;;;;;;;;;5093972;28;20205;-71
2021/03/21 16:37:32;;;;;;;19.93;8.20;;;;;;;;;;5093674;28;20210;-71